Time;durP1;ratioP1;P1;durP2;ratioP2;P2;SDS_P1;SDS_P2;PMS_P1;PMS_P2;Temp;Humidity;BMP_temperature;BMP_pressure;BME280_temperature;BME280_humidity;BME280_pressure;Samples;Min_cycle;Max_cycle;Signal;HPM_P1;HPM_P2
2022/07/30 00:01:16;;;;;;;9.83;7.90;;;18.50;99.90;19.80;96637.00;;;;5061593;28;20215;-68
2022/07/30 00:04:05;;;;;;;11.13;6.97;;;18.50;99.90;19.90;96634.00;;;;5060066;28;20199;-68
2022/07/30 00:06:54;;;;;;;8.50;7.70;;;18.50;99.90;20.00;96635.00;;;;5055075;28;20207;-68
2022/07/30 00:09:43;;;;;;;7.57;6.87;;;18.60;99.90;20.00;96633.00;;;;5051506;28;20232;-68
2022/07/30 00:12:31;;;;;;;8.30;7.43;;;18.60;99.90;20.10;96638.00;;;;5048532;28;20275;-68
2022/07/30 00:15:20;;;;;;;7.53;6.83;;;18.70;99.90;20.10;96631.00;;;;5057316;28;20208;-68
2022/07/30 00:18:11;;;;;;;8.50;6.57;;;18.70;99.90;20.10;96630.00;;;;5064376;28;20192;-68
2022/07/30 00:21:00;;;;;;;9.87;7.90;;;18.70;99.90;20.00;96627.00;;;;5062834;28;20718;-68
2022/07/30 00:23:49;;;;;;;7.47;6.60;;;18.80;99.90;19.80;96622.00;;;;5055566;28;20205;-68
2022/07/30 00:26:38;;;;;;;5.87;5.37;;;18.70;99.90;19.60;96619.00;;;;5059352;28;20201;-69
2022/07/30 00:29:26;;;;;;;7.00;6.40;;;18.60;99.90;19.70;96612.00;;;;5060601;28;20220;-69
2022/07/30 00:32:15;;;;;;;6.50;5.90;;;18.60;99.90;19.70;96628.00;;;;5049810;28;20209;-68
2022/07/30 00:35:07;;;;;;;7.77;6.83;;;18.60;99.90;19.60;96639.00;;;;5060619;28;20607;-69
2022/07/30 00:37:55;;;;;;;7.63;6.93;;;18.60;99.90;19.90;96627.00;;;;5060526;28;20208;-68
2022/07/30 00:40:46;;;;;;;6.63;5.93;;;18.60;99.90;19.70;96633.00;;;;5062129;28;20212;-67
2022/07/30 00:43:35;;;;;;;7.87;6.20;;;18.60;99.90;19.70;96642.00;;;;5059989;28;20200;-69
2022/07/30 00:46:24;;;;;;;6.63;5.80;;;18.60;99.90;19.70;96658.00;;;;5068296;28;20202;-69
2022/07/30 00:49:13;;;;;;;7.23;6.53;;;18.50;99.90;19.70;96667.00;;;;5062269;28;20231;-68
2022/07/30 00:52:03;;;;;;;8.83;6.50;;;18.50;99.90;19.90;96666.00;;;;5065286;28;20252;-68
2022/07/30 00:54:52;;;;;;;6.80;6.20;;;18.50;99.90;20.00;96664.00;;;;5063818;28;20212;-68
2022/07/30 00:57:42;;;;;;;6.93;6.30;;;18.60;99.90;20.00;96643.00;;;;5068386;28;20203;-68
2022/07/30 01:00:30;;;;;;;6.93;6.23;;;18.60;99.90;19.90;96639.00;;;;5061270;28;20227;-68
2022/07/30 01:03:19;;;;;;;6.97;6.27;;;18.60;99.90;20.00;96637.00;;;;5064228;28;20686;-68
2022/07/30 01:06:08;;;;;;;9.00;6.60;;;18.60;99.90;19.70;96646.00;;;;5049161;28;20203;-68
2022/07/30 01:08:58;;;;;;;6.83;6.17;;;18.60;99.90;19.60;96636.00;;;;5062983;28;20799;-68
2022/07/30 01:11:47;;;;;;;7.13;6.50;;;18.60;99.90;19.40;96623.00;;;;5055887;28;20204;-69
2022/07/30 01:14:37;;;;;;;7.67;6.97;;;18.50;99.90;19.60;96634.00;;;;5067132;28;20212;-68
2022/07/30 01:17:26;;;;;;;7.70;7.00;;;18.50;99.90;19.70;96622.00;;;;5067139;28;20208;-68
2022/07/30 01:20:20;;;;;;;8.20;7.07;;;18.50;99.90;19.40;96626.00;;;;5064883;28;20737;-69
2022/07/30 01:23:18;;;;;;;7.30;6.70;;;18.50;99.90;19.10;96623.00;;;;5066727;28;20210;-69
2022/07/30 01:26:11;;;;;;;6.97;6.30;;;18.40;99.90;19.20;96619.00;;;;5065278;28;20211;-69
2022/07/30 01:29:01;;;;;;;7.50;6.80;;;18.30;99.90;19.40;96609.00;;;;5062979;28;20204;-68
2022/07/30 01:31:54;;;;;;;6.93;6.20;;;18.30;99.90;19.40;96603.00;;;;5052445;28;20200;-67
2022/07/30 01:34:43;;;;;;;9.27;7.23;;;18.30;99.90;19.30;96608.00;;;;5067526;28;20192;-67
2022/07/30 01:37:34;;;;;;;11.67;7.27;;;18.30;99.90;19.20;96605.00;;;;5064050;28;20200;-66
2022/07/30 01:40:25;;;;;;;7.73;6.23;;;18.30;99.90;19.00;96613.00;;;;5060826;28;20623;-67
2022/07/30 01:43:18;;;;;;;8.63;7.00;;;18.20;99.90;19.10;96602.00;;;;5062789;28;20203;-67
2022/07/30 01:46:08;;;;;;;8.33;7.60;;;18.20;99.90;19.30;96602.00;;;;5058081;28;20204;-68
2022/07/30 01:48:57;;;;;;;8.70;6.43;;;18.20;99.90;19.60;96602.00;;;;5051869;28;20215;-68
2022/07/30 01:51:49;;;;;;;9.17;7.97;;;18.20;99.90;19.60;96596.00;;;;5070754;28;20734;-68
2022/07/30 01:54:39;;;;;;;8.07;7.27;;;18.20;99.90;19.70;96596.00;;;;5059974;28;20691;-69
2022/07/30 01:57:28;;;;;;;6.67;5.90;;;18.30;99.90;19.50;96605.00;;;;5068200;28;20573;-66
2022/07/30 02:00:19;;;;;;;6.53;5.93;;;18.30;99.90;19.40;96605.00;;;;5065208;28;20226;-67
2022/07/30 02:03:10;;;;;;;6.40;5.70;;;18.30;99.90;19.50;96601.00;;;;5060601;28;20197;-67
2022/07/30 02:06:05;;;;;;;9.37;6.00;;;18.30;99.90;19.70;96602.00;;;;5057624;28;20205;-67
2022/07/30 02:08:58;;;;;;;6.50;5.90;;;18.30;99.90;19.50;96599.00;;;;5064320;28;20588;-68
2022/07/30 02:15:12;;;;;;;6.20;5.67;;;18.30;99.90;19.50;96606.00;;;;5033158;28;20203;-66
2022/07/30 02:18:08;;;;;;;5.37;4.87;;;18.30;99.90;19.60;96605.00;;;;5065470;28;20231;-67
2022/07/30 02:21:03;;;;;;;11.47;5.57;;;18.30;99.90;19.70;96591.00;;;;5062564;28;20232;-66
2022/07/30 02:23:55;;;;;;;8.27;5.13;;;18.30;99.90;19.60;96593.00;;;;5057985;28;20565;-66
2022/07/30 02:26:49;;;;;;;4.20;3.80;;;18.30;99.90;19.50;96591.00;;;;5060428;28;20200;-66
2022/07/30 02:29:39;;;;;;;4.50;4.10;;;18.30;99.90;19.40;96594.00;;;;5057269;28;20215;-67
2022/07/30 02:32:34;;;;;;;5.23;4.73;;;18.30;99.90;19.70;96590.00;;;;5051537;28;20680;-67
2022/07/30 02:35:26;;;;;;;4.57;4.27;;;18.30;99.90;19.70;96589.00;;;;5060937;28;20203;-66
2022/07/30 02:38:18;;;;;;;4.87;4.47;;;18.30;99.90;19.80;96589.00;;;;5059385;28;20200;-67
2022/07/30 02:41:09;;;;;;;5.57;4.03;;;18.30;99.90;19.90;96591.00;;;;5059583;28;20783;-67
2022/07/30 02:43:59;;;;;;;4.47;4.07;;;18.30;99.90;19.60;96597.00;;;;5062610;28;20196;-67
2022/07/30 02:46:49;;;;;;;4.93;4.43;;;18.30;99.90;19.70;96590.00;;;;5061053;28;20196;-67
2022/07/30 02:49:40;;;;;;;4.23;3.63;;;18.30;99.90;19.60;96601.00;;;;5055199;28;20227;-67
2022/07/30 02:52:32;;;;;;;4.00;3.70;;;18.20;99.90;19.40;96584.00;;;;5060117;28;20201;-67
2022/07/30 02:55:23;;;;;;;5.33;4.57;;;18.20;99.90;19.70;96593.00;;;;5053370;28;20219;-67
2022/07/30 02:58:16;;;;;;;6.00;4.23;;;18.10;99.90;19.70;96602.00;;;;5066216;28;21582;-67
2022/07/30 03:01:05;;;;;;;3.90;3.60;;;18.20;99.90;19.70;96604.00;;;;5066223;28;20757;-67
2022/07/30 03:03:55;;;;;;;4.43;4.03;;;18.20;99.90;19.70;96604.00;;;;5066060;28;20206;-67
2022/07/30 03:06:45;;;;;;;4.00;3.70;;;18.20;99.90;19.60;96607.00;;;;5098609;23;20246;-72
2022/07/30 03:09:37;;;;;;;3.53;3.23;;;18.20;99.90;19.60;96614.00;;;;5083369;28;20199;-73
2022/07/30 03:12:29;;;;;;;5.73;3.17;;;18.20;99.90;19.60;96613.00;;;;5073020;28;20230;-74
2022/07/30 03:15:18;;;;;;;3.93;3.50;;;18.10;99.90;19.70;96613.00;;;;5073011;28;20631;-73
2022/07/30 03:18:10;;;;;;;3.53;3.23;;;18.10;99.90;19.60;96621.00;;;;5073875;28;20203;-74
2022/07/30 03:21:00;;;;;;;6.90;3.93;;;18.10;99.90;19.60;96626.00;;;;5063486;28;20569;-74
2022/07/30 03:23:51;;;;;;;6.23;4.23;;;18.10;99.90;19.60;96627.00;;;;5068118;28;20191;-74
2022/07/30 03:26:42;;;;;;;4.63;3.87;;;18.10;99.90;19.70;96637.00;;;;5070157;28;20230;-74
2022/07/30 03:29:32;;;;;;;6.50;3.63;;;18.10;99.90;19.70;96634.00;;;;5070113;28;20283;-74
2022/07/30 03:32:22;;;;;;;3.77;3.47;;;18.30;99.90;19.60;96631.00;;;;5065066;28;20718;-74
2022/07/30 03:35:12;;;;;;;3.67;3.37;;;18.10;99.90;19.50;96631.00;;;;5059623;28;20399;-74
2022/07/30 03:38:01;;;;;;;4.10;3.50;;;18.10;99.90;19.50;96643.00;;;;5057426;28;20203;-74
2022/07/30 03:40:51;;;;;;;3.20;2.90;;;18.10;99.90;19.40;96632.00;;;;5069301;28;20200;-73
2022/07/30 03:43:41;;;;;;;6.57;3.33;;;18.10;99.90;19.20;96636.00;;;;5069608;28;20192;-74
2022/07/30 03:46:32;;;;;;;4.03;3.70;;;18.00;99.90;19.30;96642.00;;;;5068971;28;20228;-74
2022/07/30 03:49:23;;;;;;;5.07;4.57;;;18.00;99.90;19.30;96643.00;;;;5072362;28;20196;-74
2022/07/30 03:52:12;;;;;;;4.07;3.67;;;18.00;99.90;19.40;96647.00;;;;5067976;28;20224;-74
2022/07/30 03:55:02;;;;;;;4.33;3.87;;;18.00;99.90;19.30;96644.00;;;;5066173;28;20224;-74
2022/07/30 03:57:51;;;;;;;4.80;4.20;;;18.00;99.90;19.30;96654.00;;;;5063925;28;20210;-74
2022/07/30 04:00:41;;;;;;;3.80;3.50;;;18.00;99.90;19.20;96653.00;;;;5066492;28;20196;-74
2022/07/30 04:03:32;;;;;;;4.30;3.90;;;18.00;99.90;19.20;96653.00;;;;5067959;28;20210;-75
2022/07/30 04:06:21;;;;;;;3.63;3.33;;;17.90;99.90;19.30;96649.00;;;;5065920;28;20228;-75
2022/07/30 04:09:12;;;;;;;3.70;3.30;;;18.00;99.90;19.40;96651.00;;;;5067324;28;20574;-75
2022/07/30 04:12:01;;;;;;;5.40;3.97;;;18.00;99.90;19.40;96650.00;;;;5068053;28;20691;-74
2022/07/30 04:14:50;;;;;;;4.67;2.97;;;18.10;99.90;19.30;96654.00;;;;5068508;28;20200;-75
2022/07/30 04:17:45;;;;;;;4.33;3.73;;;18.10;99.90;19.40;96653.00;;;;5062877;28;20687;-74
2022/07/30 04:20:40;;;;;;;3.70;3.40;;;18.10;99.90;19.40;96651.00;;;;5072201;28;20200;-75
2022/07/30 04:23:29;;;;;;;3.53;3.23;;;18.10;99.90;19.40;96650.00;;;;5072267;28;20682;-76
2022/07/30 04:26:19;;;;;;;3.70;3.40;;;18.10;99.90;19.40;96650.00;;;;5071460;28;20219;-76
2022/07/30 04:29:10;;;;;;;4.10;3.70;;;18.10;99.90;19.40;96655.00;;;;5071516;28;20204;-75
2022/07/30 04:32:00;;;;;;;5.47;4.97;;;18.10;99.90;19.40;96661.00;;;;5067193;28;20239;-76
2022/07/30 04:34:52;;;;;;;4.50;3.80;;;18.10;99.90;19.50;96661.00;;;;5067092;28;20199;-76
2022/07/30 04:37:41;;;;;;;4.83;3.60;;;18.10;99.90;19.60;96662.00;;;;5071291;28;20690;-75
2022/07/30 04:40:31;;;;;;;4.83;4.33;;;18.20;99.90;19.60;96662.00;;;;5062165;28;20185;-76
2022/07/30 04:43:19;;;;;;;7.83;4.03;;;18.20;99.90;19.50;96671.00;;;;5065132;28;20204;-74
2022/07/30 04:46:08;;;;;;;4.40;3.83;;;18.20;99.90;19.50;96677.00;;;;5071004;28;20238;-76
2022/07/30 04:48:57;;;;;;;4.30;3.60;;;18.20;99.90;19.40;96685.00;;;;5064624;28;20204;-76
2022/07/30 04:51:49;;;;;;;4.90;4.00;;;18.20;99.90;19.50;96677.00;;;;5071324;28;20227;-74
2022/07/30 04:54:42;;;;;;;9.67;4.57;;;18.20;99.90;19.60;96685.00;;;;5068389;28;20694;-75
2022/07/30 04:57:33;;;;;;;4.13;3.83;;;17.80;99.90;19.60;96680.00;;;;5060762;28;20196;-76
2022/07/30 05:00:22;;;;;;;4.77;4.27;;;18.20;99.90;19.60;96687.00;;;;5070740;28;20211;-75
2022/07/30 05:03:14;;;;;;;4.20;3.80;;;18.20;99.90;19.50;96689.00;;;;5081916;28;20199;-75
2022/07/30 05:06:05;;;;;;;3.47;3.17;;;18.20;99.90;19.60;96688.00;;;;5067681;28;20246;-77
2022/07/30 05:08:56;;;;;;;3.83;3.47;;;18.20;99.90;19.40;96687.00;;;;5067765;28;20215;-76
2022/07/30 05:11:51;;;;;;;3.53;3.23;;;18.20;99.90;19.60;96684.00;;;;5071429;28;20224;-76
2022/07/30 05:14:40;;;;;;;4.83;4.43;;;18.20;99.90;19.50;96681.00;;;;5074293;28;20196;-76
2022/07/30 05:17:30;;;;;;;3.60;2.97;;;18.20;99.90;19.60;96691.00;;;;5069225;28;20250;-77
2022/07/30 05:20:19;;;;;;;3.67;2.93;;;18.20;99.90;19.60;96695.00;;;;5070954;28;20231;-76
2022/07/30 05:23:08;;;;;;;7.87;2.80;;;18.20;99.90;19.50;96694.00;;;;5066585;28;20216;-77
2022/07/30 05:25:59;;;;;;;2.47;2.27;;;18.20;99.90;19.60;96694.00;;;;5070372;28;20220;-76
2022/07/30 05:28:47;;;;;;;2.60;2.40;;;18.20;99.90;19.60;96687.00;;;;5073556;28;20215;-76
2022/07/30 05:31:39;;;;;;;3.53;3.00;;;18.20;99.90;19.70;96688.00;;;;5061144;28;20236;-76
2022/07/30 05:34:28;;;;;;;3.13;2.83;;;18.20;99.90;19.60;96684.00;;;;5069049;28;20204;-76
2022/07/30 05:37:17;;;;;;;3.57;3.20;;;18.20;99.90;19.60;96695.00;;;;5070377;28;20238;-76
2022/07/30 05:40:08;;;;;;;4.93;3.27;;;18.20;99.90;19.70;96690.00;;;;5071859;28;20196;-76
2022/07/30 05:42:58;;;;;;;3.73;3.33;;;18.20;99.90;19.70;96696.00;;;;5062648;28;20196;-76
2022/07/30 05:45:46;;;;;;;3.50;3.00;;;18.30;99.90;19.60;96697.00;;;;5067179;28;20611;-76
2022/07/30 05:48:35;;;;;;;3.40;2.37;;;18.30;99.90;19.60;96697.00;;;;5070108;28;20215;-75
2022/07/30 05:51:24;;;;;;;3.13;2.57;;;18.30;99.90;19.60;96692.00;;;;5062700;28;20193;-76
2022/07/30 05:54:13;;;;;;;2.97;2.40;;;18.20;99.90;19.40;96695.00;;;;5069433;28;20846;-75
2022/07/30 05:57:01;;;;;;;3.10;1.97;;;18.20;99.90;19.50;96699.00;;;;5069365;28;20687;-75
2022/07/30 05:59:52;;;;;;;4.43;2.60;;;18.10;99.90;19.70;96696.00;;;;5074076;28;20222;-74
2022/07/30 06:02:41;;;;;;;2.60;2.20;;;18.20;99.90;19.60;96694.00;;;;5061459;28;20218;-75
2022/07/30 06:05:31;;;;;;;2.97;2.60;;;18.20;99.90;19.60;96706.00;;;;5067697;28;20223;-76
2022/07/30 06:08:20;;;;;;;2.97;2.70;;;18.20;99.90;19.50;96707.00;;;;5070429;28;20204;-75
2022/07/30 06:11:08;;;;;;;3.47;2.03;;;18.20;99.90;19.50;96709.00;;;;5068261;28;20200;-75
2022/07/30 06:13:57;;;;;;;2.77;2.57;;;18.20;99.90;19.50;96709.00;;;;5065717;28;20200;-75
2022/07/30 06:16:47;;;;;;;4.10;2.70;;;18.10;99.90;19.40;96708.00;;;;5068790;28;20220;-75
2022/07/30 06:19:36;;;;;;;2.87;2.50;;;18.10;99.90;19.30;96711.00;;;;5069058;28;20211;-75
2022/07/30 06:22:25;;;;;;;2.77;2.57;;;18.10;99.90;19.30;96715.00;;;;5066734;28;20205;-74
2022/07/30 06:25:14;;;;;;;2.47;2.27;;;18.10;99.90;19.50;96715.00;;;;5068155;28;20231;-75
2022/07/30 06:28:02;;;;;;;2.40;2.30;;;18.10;99.90;19.50;96723.00;;;;5064827;28;20196;-76
2022/07/30 06:31:03;;;;;;;3.83;2.80;;;18.10;99.90;19.60;96712.00;;;;5064309;28;20709;-75
2022/07/30 06:33:53;;;;;;;3.80;2.50;;;18.20;99.90;19.50;96713.00;;;;5065666;28;20215;-74
2022/07/30 06:36:41;;;;;;;2.20;2.10;;;18.20;99.90;19.40;96719.00;;;;5068778;28;20231;-76
2022/07/30 06:39:30;;;;;;;2.00;1.90;;;18.20;99.90;19.30;96726.00;;;;5068143;28;20192;-76
2022/07/30 06:42:19;;;;;;;1.80;1.70;;;18.20;99.90;19.30;96730.00;;;;5066626;28;20570;-76
2022/07/30 06:45:10;;;;;;;2.17;1.90;;;18.10;99.90;19.50;96728.00;;;;5065544;28;20222;-76
2022/07/30 06:47:59;;;;;;;4.23;2.07;;;18.10;99.90;19.60;96721.00;;;;5068210;28;20668;-76
2022/07/30 06:50:49;;;;;;;3.50;2.10;;;18.20;99.90;19.70;96735.00;;;;5065386;28;20205;-76
2022/07/30 06:53:38;;;;;;;1.87;1.77;;;18.20;99.90;19.80;96742.00;;;;5064956;28;20692;-77
2022/07/30 06:56:27;;;;;;;2.50;2.30;;;18.30;99.90;19.70;96728.00;;;;5068224;28;20219;-76
2022/07/30 06:59:15;;;;;;;2.10;1.90;;;18.30;99.90;19.80;96727.00;;;;5068932;28;20196;-76
2022/07/30 07:02:04;;;;;;;2.27;1.80;;;18.30;99.90;19.80;96734.00;;;;5065190;28;20218;-76
2022/07/30 07:04:53;;;;;;;9.10;1.90;;;18.30;99.90;19.70;96727.00;;;;5065617;28;20215;-76
2022/07/30 07:07:43;;;;;;;1.77;1.67;;;18.30;99.90;19.70;96721.00;;;;5068006;28;20200;-76
2022/07/30 07:10:40;;;;;;;3.57;1.53;;;18.30;99.90;19.60;96724.00;;;;5069320;28;20196;-76
2022/07/30 07:13:28;;;;;;;2.50;1.77;;;18.30;99.90;19.60;96736.00;;;;5080988;28;20227;-76
2022/07/30 07:16:20;;;;;;;2.57;1.93;;;18.30;99.90;19.70;96728.00;;;;5052270;28;20219;-76
2022/07/30 07:19:09;;;;;;;2.47;2.20;;;18.30;99.90;19.70;96731.00;;;;5066318;28;20196;-76
2022/07/30 07:21:58;;;;;;;1.90;1.80;;;18.30;99.90;19.70;96732.00;;;;5067870;28;20204;-76
2022/07/30 07:24:48;;;;;;;2.03;1.83;;;18.30;99.90;19.70;96745.00;;;;5069112;28;20667;-77
2022/07/30 07:27:37;;;;;;;2.33;1.73;;;18.30;99.90;19.60;96739.00;;;;5059133;28;20208;-76
2022/07/30 07:30:26;;;;;;;1.53;1.43;;;18.30;99.90;19.70;96744.00;;;;5068769;28;20599;-76
2022/07/30 07:33:15;;;;;;;4.07;2.10;;;18.30;99.90;19.70;96744.00;;;;5067216;28;20246;-76
2022/07/30 07:36:04;;;;;;;3.47;2.17;;;18.30;99.90;19.80;96734.00;;;;5073559;28;20231;-76
2022/07/30 07:38:53;;;;;;;4.20;1.63;;;18.30;99.90;19.70;96731.00;;;;5057980;28;20690;-75
2022/07/30 07:41:43;;;;;;;1.93;1.73;;;18.30;99.90;19.80;96729.00;;;;5067005;28;20196;-75
2022/07/30 07:44:32;;;;;;;3.00;2.00;;;18.30;99.90;19.90;96730.00;;;;5068040;28;20576;-75
2022/07/30 07:47:21;;;;;;;2.40;1.63;;;18.40;99.90;20.00;96729.00;;;;5068503;28;20207;-75
2022/07/30 07:50:10;;;;;;;2.20;1.90;;;18.40;99.90;20.00;96731.00;;;;5068969;28;20210;-76
2022/07/30 07:52:59;;;;;;;2.87;1.53;;;18.50;99.90;20.00;96726.00;;;;5068266;28;20258;-75
2022/07/30 07:55:49;;;;;;;1.60;1.50;;;18.50;99.90;20.00;96733.00;;;;5069255;28;20234;-75
2022/07/30 07:58:39;;;;;;;2.53;2.00;;;18.60;99.90;20.10;96731.00;;;;5067135;28;20220;-74
2022/07/30 08:01:28;;;;;;;2.50;2.30;;;18.60;99.90;20.20;96725.00;;;;5066794;28;20196;-74
2022/07/30 08:04:17;;;;;;;3.33;2.60;;;18.70;99.90;20.10;96722.00;;;;5068403;28;20586;-76
2022/07/30 08:07:06;;;;;;;1.90;1.70;;;18.70;99.90;20.20;96724.00;;;;5067885;28;20218;-75
2022/07/30 08:09:54;;;;;;;2.30;2.00;;;18.80;99.90;20.20;96715.00;;;;5068274;28;20594;-74
2022/07/30 08:12:43;;;;;;;2.93;2.20;;;18.80;99.90;20.10;96726.00;;;;5059811;28;20204;-74
2022/07/30 08:15:34;;;;;;;2.73;2.00;;;18.80;99.90;20.40;96715.00;;;;5067610;28;20715;-74
2022/07/30 08:18:23;;;;;;;2.00;1.90;;;18.90;99.90;20.50;96722.00;;;;5068783;28;20196;-74
2022/07/30 08:21:12;;;;;;;2.50;2.30;;;19.00;99.90;20.70;96733.00;;;;5068407;28;20613;-75
2022/07/30 08:24:00;;;;;;;2.00;1.73;;;19.10;99.90;20.60;96727.00;;;;5062408;28;20200;-74
2022/07/30 08:26:49;;;;;;;3.40;1.90;;;19.20;99.90;20.50;96728.00;;;;5065813;28;20227;-74
2022/07/30 08:29:38;;;;;;;2.33;2.13;;;19.20;99.90;20.40;96739.00;;;;5065575;28;20200;-74
2022/07/30 08:32:28;;;;;;;1.90;1.80;;;19.20;99.90;20.50;96730.00;;;;5063613;28;20527;-75
2022/07/30 08:35:17;;;;;;;2.20;2.00;;;19.20;99.90;20.80;96735.00;;;;5068679;28;20707;-76
2022/07/30 08:38:05;;;;;;;1.87;1.77;;;19.30;99.90;20.90;96739.00;;;;5056956;28;20200;-76
2022/07/30 08:40:56;;;;;;;2.03;1.83;;;19.40;99.90;20.90;96736.00;;;;5068252;28;20211;-74
2022/07/30 08:43:47;;;;;;;2.80;1.90;;;19.40;99.90;21.20;96733.00;;;;5067087;28;20219;-75
2022/07/30 08:46:41;;;;;;;1.67;1.57;;;19.50;99.90;21.50;96742.00;;;;5063831;28;20228;-74
2022/07/30 08:49:33;;;;;;;2.13;1.93;;;19.60;99.90;21.60;96741.00;;;;5054315;28;20204;-76
2022/07/30 08:52:22;;;;;;;2.77;2.57;;;19.80;99.90;21.60;96744.00;;;;5056441;28;20583;-75
2022/07/30 08:55:11;;;;;;;4.27;2.30;;;19.90;99.90;21.70;96736.00;;;;5060287;28;20265;-75
2022/07/30 08:58:00;;;;;;;3.30;2.53;;;20.00;99.90;22.10;96741.00;;;;5070521;28;20584;-74
2022/07/30 09:00:50;;;;;;;2.83;2.60;;;20.20;99.90;22.30;96732.00;;;;5070615;28;20248;-74
2022/07/30 09:03:39;;;;;;;2.20;1.67;;;20.30;99.90;22.40;96734.00;;;;5067737;28;20200;-76
2022/07/30 09:06:29;;;;;;;2.13;1.97;;;20.50;99.90;22.50;96727.00;;;;5060813;22;20224;-85
2022/07/30 09:09:18;;;;;;;2.50;2.07;;;20.60;99.90;22.60;96721.00;;;;5053147;28;20197;-84
2022/07/30 09:12:40;;;;;;;2.47;2.27;;;20.80;99.90;22.50;96735.00;;;;5066684;28;20224;-84
2022/07/30 09:15:29;;;;;;;2.67;1.90;;;20.90;99.90;22.60;96742.00;;;;5052150;28;20209;-85
2022/07/30 09:18:31;;;;;;;1.67;1.57;;;20.90;99.90;22.70;96739.00;;;;5053333;28;20208;-85
2022/07/30 09:21:22;;;;;;;2.23;2.03;;;20.90;99.90;22.80;96748.00;;;;5047715;28;20228;-84
2022/07/30 09:24:13;;;;;;;2.37;2.17;;;21.00;99.90;22.80;96743.00;;;;5045485;28;20557;-84
2022/07/30 09:27:04;;;;;;;2.17;2.00;;;21.10;99.90;22.60;96742.00;;;;5053752;28;20201;-84
2022/07/30 09:29:58;;;;;;;2.20;1.93;;;21.10;99.90;22.60;96742.00;;;;5050711;28;20223;-85
2022/07/30 09:32:49;;;;;;;2.80;2.60;;;21.10;99.90;22.70;96752.00;;;;5051915;28;20206;-84
2022/07/30 09:35:38;;;;;;;3.77;1.90;;;21.00;99.90;22.80;96746.00;;;;5051112;28;20205;-85
2022/07/30 09:38:27;;;;;;;1.97;1.87;;;21.10;99.90;22.80;96744.00;;;;5052159;28;20196;-85
2022/07/30 09:41:25;;;;;;;2.30;2.10;;;21.10;99.90;22.90;96747.00;;;;5046898;28;20221;-85
2022/07/30 09:44:30;;;;;;;1.97;1.87;;;21.20;99.90;22.90;96732.00;;;;5048672;28;20209;-86
2022/07/30 09:47:31;;;;;;;7.07;2.77;;;21.20;99.90;23.30;96733.00;;;;5051822;28;20212;-85
2022/07/30 09:50:23;;;;;;;2.40;2.20;;;21.30;99.90;23.40;96727.00;;;;5053172;28;20223;-84
2022/07/30 09:53:11;;;;;;;4.93;3.03;;;21.50;99.90;23.50;96731.00;;;;5047901;28;20208;-85
2022/07/30 09:56:01;;;;;;;2.03;1.87;;;21.60;99.90;23.70;96726.00;;;;5045994;28;20223;-85
2022/07/30 09:58:51;;;;;;;2.67;2.47;;;21.80;99.90;24.10;96726.00;;;;5047690;28;20197;-86
2022/07/30 10:01:54;;;;;;;3.70;2.30;;;22.00;99.90;24.20;96726.00;;;;5047719;28;20245;-85
2022/07/30 10:04:45;;;;;;;2.10;1.90;;;22.20;99.90;24.10;96734.00;;;;5048708;28;20571;-85
2022/07/30 10:07:34;;;;;;;3.00;2.50;;;22.30;99.90;24.10;96735.00;;;;5042896;28;20204;-85
2022/07/30 10:10:27;;;;;;;3.77;2.20;;;22.30;99.90;23.90;96733.00;;;;5049506;28;20216;-85
2022/07/30 10:13:18;;;;;;;2.53;2.13;;;22.20;99.90;23.90;96730.00;;;;5047252;28;20205;-86
2022/07/30 10:16:09;;;;;;;2.47;2.30;;;22.30;99.90;23.80;96733.00;;;;5046654;28;20220;-86
2022/07/30 10:18:59;;;;;;;5.00;2.83;;;22.20;99.90;24.00;96731.00;;;;5047320;28;20199;-85
2022/07/30 10:21:50;;;;;;;2.20;2.00;;;22.20;99.90;23.80;96732.00;;;;5049798;28;20219;-86
2022/07/30 10:24:40;;;;;;;2.47;2.27;;;22.20;99.90;23.80;96727.00;;;;5051049;28;20231;-85
2022/07/30 10:27:29;;;;;;;3.43;3.13;;;22.20;99.90;23.80;96725.00;;;;5050303;28;20200;-86
2022/07/30 10:30:19;;;;;;;3.17;2.70;;;22.20;99.90;23.70;96719.00;;;;5043439;28;20231;-86
2022/07/30 10:33:11;;;;;;;4.13;2.53;;;22.10;99.90;23.70;96721.00;;;;5042225;28;20201;-85
2022/07/30 10:36:00;;;;;;;3.00;2.63;;;22.10;99.90;23.70;96721.00;;;;5048857;28;20243;-86
2022/07/30 10:38:49;;;;;;;2.73;2.50;;;22.10;99.90;23.70;96719.00;;;;5050778;28;20201;-86
2022/07/30 10:41:48;;;;;;;2.77;2.57;;;22.10;99.90;23.70;96728.00;;;;5054470;28;20221;-86
2022/07/30 10:45:07;;;;;;;3.00;2.20;;;22.10;99.90;23.70;96729.00;;;;5046508;28;20601;-86
2022/07/30 10:47:57;;;;;;;2.30;2.10;;;22.00;99.90;23.60;96727.00;;;;5045722;28;20575;-86
2022/07/30 10:50:54;;;;;;;4.43;3.73;;;22.00;99.90;23.70;96734.00;;;;5045035;28;20228;-86
2022/07/30 10:53:45;;;;;;;2.73;2.53;;;22.10;99.90;23.60;96740.00;;;;5047501;28;20208;-86
2022/07/30 10:56:34;;;;;;;2.73;2.47;;;22.10;99.90;23.20;96735.00;;;;5049590;28;20197;-86
2022/07/30 10:59:23;;;;;;;4.03;2.83;;;22.00;99.90;23.60;96735.00;;;;5046319;28;20205;-87
2022/07/30 11:02:14;;;;;;;2.80;2.60;;;22.00;99.90;23.70;96733.00;;;;5047191;28;20236;-85
2022/07/30 11:05:23;;;;;;;3.73;2.60;;;22.10;99.90;23.90;96728.00;;;;5048934;28;20224;-87
2022/07/30 11:08:38;;;;;;;3.10;2.77;;;22.10;99.90;24.00;96729.00;;;;5054587;28;20208;-86
2022/07/30 11:11:46;;;;;;;2.83;2.63;;;22.20;99.90;24.10;96726.00;;;;5052958;28;20228;-86
2022/07/30 11:14:59;;;;;;;4.23;3.07;;;22.30;99.90;24.10;96729.00;;;;5059392;28;20208;-86
2022/07/30 11:18:07;;;;;;;3.47;3.17;;;22.30;99.90;24.20;96734.00;;;;5039819;28;20203;-86
2022/07/30 11:21:17;;;;;;;3.63;3.33;;;22.40;99.90;24.30;96721.00;;;;5050242;28;20229;-85
2022/07/30 11:24:44;;;;;;;3.87;3.53;;;22.50;99.90;24.40;96707.00;;;;5048826;28;20193;-86
2022/07/30 11:27:40;;;;;;;3.77;3.40;;;22.60;99.90;24.60;96714.00;;;;5051349;28;20205;-86
2022/07/30 11:30:34;;;;;;;6.67;3.83;;;22.70;99.90;24.70;96733.00;;;;5055488;28;20610;-85
2022/07/30 11:33:24;;;;;;;4.27;3.90;;;22.80;99.90;24.70;96717.00;;;;5048841;28;20214;-86
2022/07/30 11:36:13;;;;;;;4.23;3.83;;;22.90;99.90;25.00;96714.00;;;;5049350;28;20196;-86
2022/07/30 11:39:02;;;;;;;4.40;3.40;;;23.00;99.90;25.00;96713.00;;;;5043941;28;20200;-86
2022/07/30 11:44:45;;;;;;;3.97;3.60;;;23.20;99.90;25.50;96706.00;;;;5125302;27;20666;-66
2022/07/30 11:47:35;;;;;;;6.13;3.60;;;23.40;99.90;25.40;96710.00;;;;5106327;28;20207;-66
2022/07/30 11:50:26;;;;;;;3.87;3.57;;;23.50;99.90;25.70;96707.00;;;;5092758;28;20191;-66
2022/07/30 11:53:18;;;;;;;4.17;3.80;;;23.70;99.90;25.50;96709.00;;;;5098521;28;20211;-65
2022/07/30 11:56:09;;;;;;;3.77;3.47;;;23.80;99.90;25.70;96703.00;;;;5099997;28;20215;-67
2022/07/30 11:59:02;;;;;;;4.17;3.80;;;23.90;99.90;25.90;96702.00;;;;5089208;28;20206;-65
2022/07/30 12:01:55;;;;;;;4.00;3.60;;;24.00;99.90;26.00;96701.00;;;;5099688;28;20203;-67
2022/07/30 12:04:44;;;;;;;5.20;3.50;;;24.10;99.90;26.10;96703.00;;;;5104645;28;20600;-65
2022/07/30 12:07:34;;;;;;;4.20;3.90;;;24.30;99.90;26.90;96686.00;;;;5087188;28;20210;-65
2022/07/30 12:10:23;;;;;;;3.70;3.30;;;24.50;99.90;28.10;96696.00;;;;5088409;28;20207;-66
2022/07/30 12:13:13;;;;;;;4.60;3.80;;;25.00;99.90;27.90;96685.00;;;;5105971;28;20197;-66
2022/07/30 12:16:08;;;;;;;3.07;2.80;;;25.40;99.90;27.60;96696.00;;;;5113950;28;20227;-66
2022/07/30 12:19:04;;;;;;;4.47;3.70;;;25.70;99.90;27.30;96692.00;;;;5115360;28;20199;-67
2022/07/30 12:21:53;;;;;;;4.07;2.80;;;25.70;99.90;27.10;96684.00;;;;5109946;28;20423;-67
2022/07/30 12:24:41;;;;;;;3.07;2.87;;;25.60;99.90;26.80;96688.00;;;;5097031;28;20232;-65
2022/07/30 12:27:31;;;;;;;3.20;2.80;;;25.50;99.90;26.70;96690.00;;;;5097891;28;20213;-66
2022/07/30 12:30:20;;;;;;;3.10;2.83;;;25.40;99.90;27.20;96678.00;;;;5109995;28;20632;-65
2022/07/30 12:33:08;;;;;;;3.43;2.80;;;25.40;99.90;26.90;96688.00;;;;5103102;28;20199;-66
2022/07/30 12:36:00;;;;;;;3.67;3.37;;;25.40;99.90;27.50;96689.00;;;;5102292;28;20880;-66
2022/07/30 12:38:51;;;;;;;4.10;3.80;;;25.50;99.90;27.40;96684.00;;;;5097924;28;20196;-65
2022/07/30 12:41:44;;;;;;;3.37;3.13;;;25.50;99.90;27.70;96687.00;;;;5102108;28;20406;-66
2022/07/30 12:44:39;;;;;;;3.40;3.10;;;25.60;99.90;27.70;96690.00;;;;5089529;28;20247;-66
2022/07/30 12:47:32;;;;;;;3.53;3.23;;;25.70;99.90;27.70;96679.00;;;;5103030;28;20205;-66